Time;durP1;ratioP1;P1;durP2;ratioP2;P2;SDS_P1;SDS_P2;PMS_P1;PMS_P2;Temp;Humidity;BMP_temperature;BMP_pressure;BME280_temperature;BME280_humidity;BME280_pressure;Samples;Min_cycle;Max_cycle;Signal;HPM_P1;HPM_P2
2021/09/16 00:00:08;;;;;;;;;6.25;6.25;;;;;20.41;100.00;101424.63;5018494;28;45328;-63
2021/09/16 00:02:33;;;;;;;;;7.00;6.00;;;;;20.38;100.00;101433.53;5018249;28;46230;-64
2021/09/16 00:04:59;;;;;;;;;7.00;6.00;;;;;20.32;100.00;101425.84;5000720;28;45375;-63
2021/09/16 00:07:25;;;;;;;;;7.00;7.00;;;;;20.31;100.00;101429.41;5017219;28;45422;-63
2021/09/16 00:09:50;;;;;;;;;6.25;5.75;;;;;20.24;100.00;101429.75;5017958;28;45550;-64
2021/09/16 00:12:16;;;;;;;;;6.25;6.25;;;;;20.22;100.00;101436.91;5017978;28;46305;-63
2021/09/16 00:14:41;;;;;;;;;7.50;6.50;;;;;20.19;100.00;101436.13;5018172;28;45357;-63
2021/09/16 00:17:07;;;;;;;;;7.00;7.00;;;;;20.16;100.00;101425.66;5018112;28;45278;-63
2021/09/16 00:22:54;;;;;;;;;8.50;8.00;;;;;20.04;100.00;101427.97;5017791;28;45641;-63
2021/09/16 00:25:19;;;;;;;;;6.00;6.00;;;;;20.04;100.00;101438.56;5017691;28;45365;-63
2021/09/16 00:27:45;;;;;;;;;7.25;7.25;;;;;20.00;100.00;101442.28;5017812;28;45346;-64
2021/09/16 00:30:11;;;;;;;;;6.00;6.00;;;;;19.94;100.00;101438.09;5018040;28;45467;-63
2021/09/16 00:32:37;;;;;;;;;7.25;7.25;;;;;19.81;100.00;101427.13;5017771;28;46238;-64
2021/09/16 00:35:04;;;;;;;;;10.50;6.50;;;;;19.87;100.00;101440.13;5017570;28;45527;-63
2021/09/16 00:37:30;;;;;;;;;8.75;8.00;;;;;19.82;100.00;101439.47;5017632;28;45292;-64
2021/09/16 00:39:55;;;;;;;;;7.00;6.00;;;;;19.82;100.00;101450.06;5017828;28;45393;-63
2021/09/16 00:42:21;;;;;;;;;7.00;7.00;;;;;19.77;100.00;101446.75;5017474;28;45350;-63
2021/09/16 00:44:46;;;;;;;;;7.25;7.00;;;;;19.76;100.00;101455.63;5017291;28;45376;-63
2021/09/16 00:47:13;;;;;;;;;7.50;7.25;;;;;19.72;100.00;101454.03;5017937;28;45328;-63
2021/09/16 00:53:00;;;;;;;;;7.50;7.00;;;;;19.62;100.00;101444.72;5017264;28;45704;-63
2021/09/16 00:55:27;;;;;;;;;8.75;8.75;;;;;19.60;100.00;101457.16;5017237;28;45481;-63
2021/09/16 00:57:55;;;;;;;;;7.25;7.00;;;;;19.55;100.00;101456.50;5017461;28;45404;-63
2021/09/16 01:00:21;;;;;;;;;6.00;6.00;;;;;19.56;100.00;101456.44;5017579;28;45491;-63
2021/09/16 01:02:47;;;;;;;;;6.00;6.00;;;;;19.52;100.00;101453.94;5017402;28;45322;-64
2021/09/16 01:05:13;;;;;;;;;9.50;8.25;;;;;19.45;100.00;101461.25;5017111;28;45350;-63
2021/09/16 01:07:40;;;;;;;;;9.25;7.75;;;;;19.42;100.00;101457.84;5017258;28;45305;-64
2021/09/16 01:10:07;;;;;;;;;9.50;8.00;;;;;19.35;100.00;101457.25;5017460;28;45370;-63
2021/09/16 01:12:33;;;;;;;;;5.25;5.25;;;;;19.33;100.00;101471.47;5017031;28;46329;-63
2021/09/16 01:14:58;;;;;;;;;8.25;7.75;;;;;19.26;100.00;101465.56;5017270;28;45463;-63
2021/09/16 01:17:24;;;;;;;;;6.50;5.50;;;;;19.19;100.00;101464.91;5017054;28;45313;-63
2021/09/16 01:23:10;;;;;;;;;9.75;7.00;;;;;19.16;100.00;101470.31;5016974;28;45418;-64
2021/09/16 01:25:37;;;;;;;;;8.00;8.00;;;;;19.13;100.00;101475.75;5017051;28;45421;-64
2021/09/16 01:28:03;;;;;;;;;9.00;8.25;;;;;19.09;100.00;101470.63;5017096;28;45341;-64
2021/09/16 01:30:29;;;;;;;;;9.75;9.50;;;;;19.12;100.00;101473.16;5017075;28;45354;-64
2021/09/16 01:32:56;;;;;;;;;8.25;8.25;;;;;19.09;100.00;101471.50;5016895;28;46595;-64
2021/09/16 01:35:22;;;;;;;;;10.25;8.75;;;;;19.08;100.00;101460.97;5016793;28;45567;-64
2021/09/16 01:37:48;;;;;;;;;8.25;7.25;;;;;19.12;100.00;101479.31;5017097;28;45324;-64
2021/09/16 01:40:14;;;;;;;;;8.00;7.25;;;;;19.13;100.00;101481.03;5017260;28;45398;-64
2021/09/16 01:42:45;;;;;;;;;8.25;8.00;;;;;19.13;100.00;101486.31;5016985;28;46669;-64
2021/09/16 01:45:12;;;;;;;;;8.50;7.25;;;;;19.17;100.00;101487.94;5016967;28;45421;-64
2021/09/16 01:47:38;;;;;;;;;10.75;8.75;;;;;19.16;100.00;101491.50;5016671;28;45310;-64
2021/09/16 01:53:25;;;;;;;;;9.25;8.75;;;;;19.22;100.00;101485.09;5016485;28;45335;-64
2021/09/16 01:55:50;;;;;;;;;12.50;9.75;;;;;19.18;100.00;101476.41;5016406;28;45414;-64
2021/09/16 01:58:15;;;;;;;;;10.00;9.50;;;;;19.12;100.00;101463.44;5016909;28;45314;-64
2021/09/16 02:00:41;;;;;;;;;10.50;9.00;;;;;19.23;100.00;101489.47;5017051;28;45239;-64
2021/09/16 02:03:06;;;;;;;;;13.25;11.00;;;;;19.16;100.00;101480.06;5016631;28;45693;-64
2021/09/16 02:05:32;;;;;;;;;11.00;10.25;;;;;19.19;100.00;101487.88;5016472;28;45334;-63
2021/09/16 02:07:57;;;;;;;;;8.50;8.50;;;;;19.14;100.00;101484.53;5016550;28;45251;-64
2021/09/16 02:10:22;;;;;;;;;9.00;9.00;;;;;19.15;100.00;101494.22;5016938;28;45210;-64
2021/09/16 02:12:48;;;;;;;;;9.75;8.75;;;;;19.17;100.00;101489.72;5016340;28;46259;-64
2021/09/16 02:15:13;;;;;;;;;10.00;9.00;;;;;19.13;100.00;101478.38;5016628;28;45231;-64
2021/09/16 02:17:39;;;;;;;;;8.75;8.75;;;;;19.11;100.00;101479.38;5016484;28;45352;-64
2021/09/16 02:23:25;;;;;;;;;10.00;8.00;;;;;19.11;100.00;101489.97;5016154;28;45328;-64
2021/09/16 02:25:51;;;;;;;;;7.50;7.00;;;;;19.05;100.00;101483.13;5016102;28;45279;-64
2021/09/16 02:28:16;;;;;;;;;10.75;8.25;;;;;19.10;100.00;101504.13;5016333;28;45258;-64
2021/09/16 02:30:42;;;;;;;;;8.75;8.75;;;;;19.02;100.00;101493.81;5019291;28;45505;-64
2021/09/16 02:33:08;;;;;;;;;11.00;8.00;;;;;19.02;100.00;101499.13;5019818;28;45468;-64
2021/09/16 02:38:55;;;;;;;;;8.75;8.00;;;;;18.92;100.00;101495.06;5019564;28;45366;-63
2021/09/16 02:41:21;;;;;;;;;9.00;7.25;;;;;18.93;100.00;101504.72;5019701;28;45641;-64
2021/09/16 02:43:47;;;;;;;;;10.00;8.75;;;;;18.92;100.00;101510.94;5019197;28;46604;-64
2021/09/16 02:46:12;;;;;;;;;9.25;8.25;;;;;18.92;100.00;101503.00;5019653;28;45302;-64
2021/09/16 02:48:37;;;;;;;;;9.75;8.25;;;;;18.88;100.00;101501.41;5019424;28;45228;-64
2021/09/16 02:51:03;;;;;;;;;10.00;8.75;;;;;18.86;100.00;101501.44;5019773;28;45271;-64
2021/09/16 02:53:28;;;;;;;;;9.50;8.50;;;;;18.87;100.00;101508.47;5019206;28;47063;-64
2021/09/16 02:55:54;;;;;;;;;8.00;7.00;;;;;18.85;100.00;101506.81;5019493;28;45370;-64
2021/09/16 02:58:19;;;;;;;;;9.50;7.00;;;;;18.80;100.00;101500.81;5019199;28;45286;-64
2021/09/16 03:00:44;;;;;;;;;5.50;4.75;;;;;18.85;100.00;101512.09;5019703;28;45433;-64
2021/09/16 03:03:10;;;;;;;;;8.25;7.25;;;;;18.84;100.00;101515.66;5019025;28;46933;-64
2021/09/16 03:09:11;;;;;;;;;7.00;7.00;;;;;18.81;100.00;101513.13;5017667;28;45513;-63
2021/09/16 03:11:37;;;;;;;;;10.00;9.25;;;;;18.83;100.00;101517.44;5019160;28;45339;-64
2021/09/16 03:14:02;;;;;;;;;9.00;8.00;;;;;18.80;100.00;101517.56;5018794;28;46088;-64
2021/09/16 03:16:27;;;;;;;;;9.75;8.25;;;;;18.83;100.00;101509.50;5018740;28;45358;-64
2021/09/16 03:18:53;;;;;;;;;12.00;8.75;;;;;18.87;100.00;101515.53;5019080;28;45408;-65
2021/09/16 03:21:18;;;;;;;;;8.75;8.25;;;;;18.89;100.00;101519.00;5019221;28;45361;-65
2021/09/16 03:23:44;;;;;;;;;7.00;7.00;;;;;18.91;100.00;101525.97;5018586;28;46572;-62
2021/09/16 03:26:09;;;;;;;;;7.50;7.50;;;;;18.91;100.00;101518.03;5019028;28;45371;-62
2021/09/16 03:28:38;;;;;;;;;7.75;7.75;;;;;18.84;100.00;101513.88;5018702;28;45370;-63
2021/09/16 03:31:04;;;;;;;;;11.50;7.75;;;;;18.90;100.00;101523.38;5019258;28;45425;-63
2021/09/16 03:33:30;;;;;;;;;8.75;7.50;;;;;18.89;100.00;101519.88;5018555;28;46519;-63
2021/09/16 03:39:17;;;;;;;;;7.00;7.00;;;;;18.99;100.00;101528.31;5018495;28;45270;-63
2021/09/16 03:41:42;;;;;;;;;6.00;6.00;;;;;19.01;100.00;101528.25;5017465;28;45366;-63
2021/09/16 03:44:08;;;;;;;;;6.00;6.00;;;;;19.00;100.00;101526.53;5018312;28;47166;-63
2021/09/16 03:46:33;;;;;;;;;7.50;7.00;;;;;18.94;100.00;101512.63;5018506;28;45337;-63
2021/09/16 03:48:58;;;;;;;;;8.50;7.00;;;;;19.03;100.00;101527.31;5018642;28;45316;-63
2021/09/16 03:51:24;;;;;;;;;8.50;7.25;;;;;18.94;100.00;101511.75;5018576;28;45667;-63
2021/09/16 03:53:49;;;;;;;;;8.00;7.25;;;;;19.05;100.00;101527.25;5018163;28;46162;-63
2021/09/16 03:56:14;;;;;;;;;8.50;8.50;;;;;19.04;100.00;101530.81;5018688;28;45367;-63
2021/09/16 03:58:40;;;;;;;;;8.75;7.25;;;;;19.05;100.00;101525.47;5018584;28;45377;-64
2021/09/16 04:01:05;;;;;;;;;7.75;6.00;;;;;18.99;100.00;101515.09;5018418;28;45514;-63
2021/09/16 04:03:31;;;;;;;;;6.25;6.25;;;;;18.95;100.00;101524.94;5018243;28;46315;-63
2021/09/16 04:09:18;;;;;;;;;8.50;7.50;;;;;18.92;100.00;101527.69;5017363;28;45382;-63
2021/09/16 04:11:43;;;;;;;;;7.50;7.00;;;;;18.89;100.00;101532.22;5018588;28;45350;-63
2021/09/16 04:14:09;;;;;;;;;7.25;6.00;;;;;18.78;100.00;101526.44;5017919;28;47270;-63
2021/09/16 04:16:34;;;;;;;;;7.75;7.00;;;;;18.82;100.00;101543.97;5018256;28;45391;-63
2021/09/16 04:19:00;;;;;;;;;8.25;6.50;;;;;18.79;100.00;101539.66;5017899;28;45290;-64
2021/09/16 04:21:25;;;;;;;;;7.00;7.00;;;;;18.77;100.00;101551.19;5018097;28;45439;-63
2021/09/16 04:23:50;;;;;;;;;7.25;7.00;;;;;18.74;100.00;101546.00;4999870;28;46390;-63
2021/09/16 04:26:16;;;;;;;;;7.75;7.25;;;;;18.74;100.00;101548.63;5017667;28;45313;-63
2021/09/16 04:28:42;;;;;;;;;7.50;7.25;;;;;18.63;100.00;101539.31;5018103;28;45314;-63
2021/09/16 04:31:08;;;;;;;;;8.50;8.00;;;;;18.67;100.00;101550.66;5018200;28;45383;-63
2021/09/16 04:33:33;;;;;;;;;6.50;6.50;;;;;18.60;100.00;101543.81;5017623;28;46664;-63
2021/09/16 04:39:20;;;;;;;;;9.00;9.00;;;;;18.60;100.00;101543.81;5017563;28;45459;-64
2021/09/16 04:41:46;;;;;;;;;8.50;7.50;;;;;18.56;100.00;101540.41;5018092;28;45392;-64
2021/09/16 04:44:11;;;;;;;;;8.00;7.25;;;;;18.49;100.00;101527.44;5017597;28;45302;-64
2021/09/16 04:46:37;;;;;;;;;9.00;8.00;;;;;18.54;100.00;101536.06;5017439;28;45418;-65
2021/09/16 04:49:02;;;;;;;;;8.25;8.00;;;;;18.58;100.00;101551.81;5017576;28;45333;-64
2021/09/16 04:54:49;;;;;;;;;9.50;8.00;;;;;18.58;100.00;101545.66;5017188;28;45803;-63
2021/09/16 04:57:14;;;;;;;;;9.25;7.00;;;;;18.56;100.00;101540.41;5017635;28;45273;-62
2021/09/16 04:59:40;;;;;;;;;7.00;6.25;;;;;18.53;100.00;101540.50;5017487;28;45279;-63
2021/09/16 05:02:05;;;;;;;;;11.00;9.00;;;;;18.44;100.00;101522.31;5017825;28;45445;-63
2021/09/16 05:04:31;;;;;;;;;10.25;7.75;;;;;18.52;100.00;101545.84;5017362;28;45806;-63
2021/09/16 05:06:56;;;;;;;;;9.00;8.00;;;;;18.41;100.00;101533.00;5017043;28;45290;-63
2021/09/16 05:09:21;;;;;;;;;9.00;8.00;;;;;18.40;100.00;101541.84;5017038;28;45315;-63
2021/09/16 05:11:48;;;;;;;;;12.50;9.50;;;;;18.45;100.00;101561.06;5017268;28;45413;-64
2021/09/16 05:14:13;;;;;;;;;10.75;9.75;;;;;18.46;100.00;101561.94;5017345;28;45697;-64
2021/09/16 05:16:39;;;;;;;;;8.25;8.25;;;;;18.40;100.00;101539.22;5017201;28;45456;-64
2021/09/16 05:19:05;;;;;;;;;10.00;10.00;;;;;18.45;100.00;101557.56;5016974;28;45352;-66
2021/09/16 05:25:06;;;;;;;;;6.50;6.00;;;;;18.29;100.00;101530.75;5016849;28;45757;-64
2021/09/16 05:27:31;;;;;;;;;9.00;8.25;;;;;18.49;100.00;101565.31;5016736;28;45234;-64
2021/09/16 05:29:57;;;;;;;;;10.25;8.75;;;;;18.49;100.00;101567.09;5017281;28;45295;-64
2021/09/16 05:32:27;;;;;;;;;8.25;7.75;;;;;18.48;100.00;101565.38;5017030;28;45291;-65
2021/09/16 05:34:52;;;;;;;;;8.50;7.00;;;;;18.44;100.00;101559.34;5016995;28;46317;-64
2021/09/16 05:37:18;;;;;;;;;10.25;8.25;;;;;18.50;100.00;101569.69;5017093;28;45370;-64
2021/09/16 05:39:43;;;;;;;;;8.50;7.50;;;;;18.46;100.00;101578.66;5016879;28;45335;-64
2021/09/16 05:42:09;;;;;;;;;10.50;8.75;;;;;18.47;100.00;101568.94;5017158;28;45422;-65
2021/09/16 05:44:34;;;;;;;;;13.50;12.25;;;;;18.43;100.00;101568.19;5016867;28;46078;-64
2021/09/16 05:46:59;;;;;;;;;11.75;9.00;;;;;18.42;100.00;101565.59;5016783;28;45454;-64
2021/09/16 05:49:25;;;;;;;;;12.50;11.75;;;;;18.36;100.00;101567.53;5016397;28;45381;-66
2021/09/16 05:55:12;;;;;;;;;17.50;15.75;;;;;18.33;100.00;101577.31;5016091;28;45804;-67
2021/09/16 05:57:37;;;;;;;;;41.25;36.25;;;;;18.33;100.00;101567.66;5015738;28;45390;-66
2021/09/16 06:00:07;;;;;;;;;14.50;13.00;;;;;18.38;100.00;101572.78;5016402;28;45524;-67
2021/09/16 06:02:34;;;;;;;;;10.00;9.50;;;;;18.39;100.00;101577.16;5016521;28;45401;-69
2021/09/16 06:04:59;;;;;;;;;9.75;8.25;;;;;18.31;100.00;101566.81;5017569;28;46424;-68
2021/09/16 06:07:24;;;;;;;;;9.00;8.00;;;;;18.36;100.00;101579.91;5019722;28;45322;-67
2021/09/16 06:09:50;;;;;;;;;7.75;7.50;;;;;18.41;100.00;101588.53;5019675;28;45291;-67
2021/09/16 06:12:15;;;;;;;;;6.75;6.75;;;;;18.35;100.00;101575.53;5020172;28;45274;-67
2021/09/16 06:14:41;;;;;;;;;8.25;6.00;;;;;18.38;100.00;101580.69;5019262;28;46531;-67
2021/09/16 06:17:06;;;;;;;;;7.75;7.00;;;;;18.41;100.00;101587.66;5019474;28;45460;-67
2021/09/16 06:19:31;;;;;;;;;8.00;7.50;;;;;18.42;100.00;101587.63;5019425;28;45931;-70
2021/09/16 06:25:18;;;;;;;;;5.00;5.00;;;;;18.52;100.00;101604.03;5019256;28;45347;-65
2021/09/16 06:27:45;;;;;;;;;8.00;7.50;;;;;18.54;100.00;101605.69;5019551;28;45308;-65
2021/09/16 06:30:11;;;;;;;;;7.00;6.00;;;;;18.62;100.00;101608.09;5019406;28;45279;-66
2021/09/16 06:32:37;;;;;;;;;7.50;5.00;;;;;18.63;100.00;101613.38;5001914;28;45555;-65
2021/09/16 06:35:05;;;;;;;;;6.25;6.00;;;;;18.70;100.00;101614.03;5019457;28;46192;-65
2021/09/16 06:37:30;;;;;;;;;5.75;4.75;;;;;18.75;100.00;101617.38;5019603;28;45371;-65
2021/09/16 06:39:56;;;;;;;;;8.00;5.00;;;;;18.77;100.00;101617.31;5019569;28;45390;-65
2021/09/16 06:42:21;;;;;;;;;6.00;5.75;;;;;18.83;100.00;101623.28;5019737;28;45399;-65
2021/09/16 06:44:47;;;;;;;;;3.75;3.75;;;;;18.85;100.00;101617.94;5019139;28;47396;-65
2021/09/16 06:47:12;;;;;;;;;4.00;4.00;;;;;18.88;100.00;101620.47;5019343;28;45215;-65
2021/09/16 06:49:45;;;;;;;;;3.50;3.00;;;;;18.93;100.00;101619.38;5019278;28;45255;-65
2021/09/16 06:56:01;;;;;;;;;6.75;5.00;;;;;19.07;100.00;101616.28;5019014;28;45477;-65
2021/09/16 06:58:26;;;;;;;;;6.00;6.00;;;;;19.08;100.00;101606.53;5018995;28;45377;-65
2021/09/16 07:00:51;;;;;;;;;9.25;8.00;;;;;19.18;100.00;101615.88;5019540;28;45461;-65
2021/09/16 07:03:17;;;;;;;;;9.75;8.00;;;;;19.19;100.00;101607.88;5019595;28;45360;-64
2021/09/16 07:05:42;;;;;;;;;8.75;7.00;;;;;19.28;100.00;101617.28;5019130;28;45298;-64
2021/09/16 07:08:08;;;;;;;;;11.75;10.50;;;;;19.23;100.00;101600.69;5018844;28;45455;-65
2021/09/16 07:10:33;;;;;;;;;9.00;8.00;;;;;19.39;100.00;101619.53;5019043;28;45340;-64
2021/09/16 07:12:58;;;;;;;;;8.50;8.25;;;;;19.40;100.00;101611.53;5019328;28;45390;-65
2021/09/16 07:15:24;;;;;;;;;11.00;7.75;;;;;19.47;100.00;101618.34;5018435;28;45975;-64
2021/09/16 07:17:49;;;;;;;;;8.75;8.00;;;;;19.52;100.00;101621.69;5018569;28;45433;-65
2021/09/16 07:20:15;;;;;;;;;6.00;5.50;;;;;19.59;100.00;101627.63;5019139;28;45340;-65
2021/09/16 07:22:40;;;;;;;;;10.75;9.75;;;;;19.57;100.00;101603.84;5019331;28;45315;-65
2021/09/16 07:25:08;;;;;;;;;5.75;5.00;;;;;19.83;100.00;101631.13;5018862;28;46561;-64
2021/09/16 07:27:33;;;;;;;;;4.50;4.00;;;;;19.89;100.00;101621.16;5018782;28;45326;-65
2021/09/16 07:29:59;;;;;;;;;5.25;4.50;;;;;20.04;100.00;101630.31;5018786;28;45254;-65
2021/09/16 07:32:24;;;;;;;;;5.25;5.00;;;;;20.16;100.00;101627.19;5018843;28;45287;-65
2021/09/16 07:34:50;;;;;;;;;4.00;4.00;;;;;20.35;100.00;101640.53;5018731;28;46499;-65
2021/09/16 07:40:37;;;;;;;;;5.75;5.00;;;;;20.78;100.00;101649.41;5018602;28;45279;-65
2021/09/16 07:43:03;;;;;;;;;5.00;5.00;;;;;20.91;100.00;101633.84;5018717;28;45444;-65
2021/09/16 07:45:28;;;;;;;;;3.00;3.00;;;;;21.14;100.00;101646.97;5018218;28;46390;-65
2021/09/16 07:47:54;;;;;;;;;4.00;3.00;;;;;21.24;100.00;101631.53;5018648;28;45287;-65
2021/09/16 07:50:19;;;;;;;;;5.25;4.75;;;;;21.46;100.00;101634.94;5018381;28;45270;-66
2021/09/16 07:52:45;;;;;;;;;6.25;5.25;;;;;21.67;100.00;101635.75;5018559;28;45517;-65
2021/09/16 07:55:10;;;;;;;;;4.50;4.25;;;;;21.86;100.00;101635.78;5018188;28;46897;-65
2021/09/16 07:57:36;;;;;;;;;6.75;6.25;;;;;22.11;100.00;101641.69;5018451;28;45362;-65
2021/09/16 08:00:02;;;;;;;;;5.75;5.25;;;;;22.30;100.00;101631.03;5018333;28;45470;-65
2021/09/16 08:02:27;;;;;;;;;5.25;4.50;;;;;22.51;100.00;101634.41;5018608;28;45391;-68
2021/09/16 08:04:53;;;;;;;;;5.75;4.75;;;;;22.77;100.00;101641.09;5018396;28;46285;-65
2021/09/16 08:10:39;;;;;;;;;3.75;3.75;;;;;23.18;100.00;101637.19;5016109;28;45559;-65
2021/09/16 08:13:05;;;;;;;;;6.00;4.50;;;;;23.33;100.00;101629.34;5018507;28;45345;-65
2021/09/16 08:15:30;;;;;;;;;4.75;4.75;;;;;23.68;100.00;101644.31;5017576;28;47521;-66
2021/09/16 08:17:57;;;;;;;;;3.75;3.75;;;;;23.98;100.00;101654.22;5017534;28;45421;-66
2021/09/16 08:20:23;;;;;;;;;6.00;4.00;;;;;24.25;100.00;101659.84;5017671;28;45398;-66
2021/09/16 08:22:49;;;;;;;;;3.00;3.00;;;;;24.48;100.00;101648.75;5017812;28;45413;-65
2021/09/16 08:25:15;;;;;;;;;5.00;4.00;;;;;24.79;100.00;101654.94;5017678;28;45475;-66
2021/09/16 08:27:41;;;;;;;;;3.00;3.00;;;;;25.07;100.00;101652.38;5017018;28;45291;-66
2021/09/16 08:30:09;;;;;;;;;3.25;2.50;;;;;25.34;100.00;101645.31;5017648;28;45374;-65
2021/09/16 08:32:34;;;;;;;;;2.00;2.00;;;;;25.69;100.00;101639.63;5017712;28;45338;-66
2021/09/16 08:35:00;;;;;;;;;3.00;2.75;;;;;26.01;100.00;101642.06;5017432;28;46586;-65
2021/09/16 08:40:47;;;;;;;;;1.50;1.50;;;;;26.86;100.00;101636.41;5017321;28;45294;-65
2021/09/16 08:43:13;;;;;;;;;2.00;2.00;;;;;27.24;100.00;101636.47;5017744;28;45250;-65
2021/09/16 08:45:39;;;;;;;;;1.00;1.00;;;;;27.59;100.00;101628.59;5017468;28;47092;-66
2021/09/16 08:48:04;;;;;;;;;1.50;0.25;;;;;27.91;100.00;101631.69;5017586;28;45406;-64
2021/09/16 08:50:30;;;;;;;;;2.00;1.00;;;;;28.28;100.00;101645.09;5017756;28;45288;-66
2021/09/16 08:52:56;;;;;;;;;0.00;0.00;;;;;28.57;100.00;101633.03;5017627;28;45490;-65
2021/09/16 08:55:23;;;;;;;;;2.00;0.75;;;;;29.00;100.00;101648.59;5017235;28;47374;-66
2021/09/16 08:57:57;;;;;;;;;0.00;0.00;;;;;29.39;100.00;101651.81;5017159;28;45375;-66
2021/09/16 09:00:25;;;;;;;;;1.75;1.00;;;;;29.82;100.00;101649.28;5017507;28;45287;-65
2021/09/16 09:02:51;;;;;;;;;1.00;1.00;;;;;30.16;100.00;101640.19;5017410;28;45420;-65
2021/09/16 09:05:19;;;;;;;;;0.75;0.75;;;;;30.44;100.00;101651.38;5016964;28;47235;-65
2021/09/16 09:11:06;;;;;;;;;3.50;1.00;;;;;31.28;100.00;101649.63;5016341;28;45421;-66
2021/09/16 09:13:34;;;;;;;;;2.00;2.00;;;;;31.83;100.00;101651.03;5017354;28;45179;-64
2021/09/16 09:16:11;;;;;;;;;2.25;2.00;;;;;32.34;100.00;101658.13;5016611;28;46542;-65
2021/09/16 09:18:48;;;;;;;;;2.00;2.00;;;;;32.87;100.00;101660.44;5016543;28;45537;-65
2021/09/16 09:21:16;;;;;;;;;3.50;2.75;;;;;33.29;100.00;101662.78;5017034;28;45445;-65
2021/09/16 09:23:54;;;;;;;;;3.75;3.75;;;;;33.71;100.00;101663.19;5017027;28;45322;-66
2021/09/16 09:26:23;;;;;;;;;4.00;3.00;;;;;34.09;100.00;101663.00;5016686;28;47135;-65
2021/09/16 09:28:50;;;;;;;;;5.50;5.00;;;;;34.45;97.19;101654.94;5016894;28;45533;-66
2021/09/16 09:31:23;;;;;;;;;2.00;2.00;;;;;34.50;95.56;101657.19;5017314;28;45283;-66
2021/09/16 09:33:48;;;;;;;;;3.25;3.00;;;;;34.21;94.08;101660.09;5017394;28;45367;-66
2021/09/16 09:36:18;;;;;;;;;2.00;2.00;;;;;33.87;95.97;101663.44;5016805;28;45426;-65
2021/09/16 09:38:59;;;;;;;;;1.25;1.00;;;;;33.47;96.37;101661.00;5018144;28;45439;-66
2021/09/16 09:41:34;;;;;;;;;1.50;1.50;;;;;33.33;95.61;101670.47;5020481;28;45352;-66
2021/09/16 09:44:11;;;;;;;;;2.00;1.50;;;;;33.22;93.90;101662.47;5020372;28;45583;-65
2021/09/16 09:46:51;;;;;;;;;1.00;1.00;;;;;33.26;95.03;101663.03;5002216;28;47143;-65
2021/09/16 09:49:24;;;;;;;;;1.00;1.00;;;;;33.39;94.73;101658.19;5020069;28;45412;-65
2021/09/16 09:51:56;;;;;;;;;3.75;3.75;;;;;33.46;93.57;101667.44;5020107;28;45313;-65
2021/09/16 09:54:32;;;;;;;;;4.50;4.50;;;;;33.48;90.95;101674.41;5020735;28;45239;-65
2021/09/16 09:57:08;;;;;;;;;3.00;3.00;;;;;33.92;89.75;101665.69;5019735;28;46920;-65
2021/09/16 09:59:53;;;;;;;;;4.00;3.00;;;;;34.84;84.26;101649.16;5020041;28;45349;-66
2021/09/16 10:02:20;;;;;;;;;4.00;3.00;;;;;35.47;83.33;101648.94;5019825;28;45347;-65
2021/09/16 10:04:46;;;;;;;;;9.75;8.75;;;;;36.02;81.82;101657.53;5019938;28;45425;-65
2021/09/16 10:07:30;;;;;;;;;3.00;3.00;;;;;36.50;80.21;101654.06;5019762;28;45641;-65
2021/09/16 10:09:57;;;;;;;;;2.50;2.50;;;;;36.87;78.49;101651.88;5019777;28;45365;-65
2021/09/16 10:12:23;;;;;;;;;2.25;2.25;;;;;36.93;76.85;101645.75;5020109;28;45354;-65
2021/09/16 10:14:48;;;;;;;;;2.00;2.00;;;;;37.04;77.07;101645.38;5019926;28;45510;-65
2021/09/16 10:17:14;;;;;;;;;1.50;1.50;;;;;37.56;75.81;101651.22;5019540;28;46926;-65
2021/09/16 10:19:41;;;;;;;;;2.25;2.25;;;;;38.28;74.46;101643.75;5019788;28;45378;-65
2021/09/16 10:22:09;;;;;;;;;2.00;2.00;;;;;38.91;72.16;101649.88;5019812;28;45430;-65
2021/09/16 10:24:34;;;;;;;;;2.25;1.25;;;;;39.58;70.25;101652.59;5020014;28;45379;-64
2021/09/16 10:27:00;;;;;;;;;1.50;1.25;;;;;40.07;67.69;101638.31;5019278;28;47232;-65
2021/09/16 10:29:28;;;;;;;;;3.00;2.75;;;;;40.58;67.05;101640.94;5019737;28;45407;-66
2021/09/16 10:32:00;;;;;;;;;2.00;2.00;;;;;40.97;66.99;101637.69;5019580;28;45357;-65
2021/09/16 10:34:48;;;;;;;;;3.00;2.25;;;;;41.44;65.18;101639.69;5019835;28;45273;-64
2021/09/16 10:37:16;;;;;;;;;2.50;1.00;;;;;41.94;65.33;101634.84;5019767;28;45465;-65
2021/09/16 10:39:43;;;;;;;;;2.75;1.00;;;;;42.37;62.59;101629.06;5019602;28;45314;-65
2021/09/16 10:42:10;;;;;;;;;2.00;2.00;;;;;42.67;61.11;101626.75;5019785;28;45390;-65
2021/09/16 10:44:38;;;;;;;;;3.00;1.75;;;;;42.80;59.11;101627.59;5019662;28;45285;-65
2021/09/16 10:47:33;;;;;;;;;1.00;1.00;;;;;42.76;59.20;101628.22;5019221;28;45443;-65
2021/09/16 10:50:19;;;;;;;;;4.50;4.00;;;;;43.18;59.34;101629.66;4938503;28;45449;-64
2021/09/16 10:52:44;;;;;;;;;1.50;1.50;;;;;44.02;58.09;101630.63;4939149;28;45406;-66
2021/09/16 10:55:10;;;;;;;;;1.00;1.00;;;;;44.80;56.80;101623.69;4938828;28;45412;-65
2021/09/16 10:57:39;;;;;;;;;3.00;3.00;;;;;43.84;55.44;101629.44;4938675;28;47098;-65
2021/09/16 11:00:17;;;;;;;;;2.50;2.00;;;;;42.03;56.19;101628.09;4938791;28;45451;-65
2021/09/16 11:02:43;;;;;;;;;2.00;2.00;;;;;41.43;58.94;101628.94;4938495;28;45455;-65
2021/09/16 11:05:10;;;;;;;;;3.00;2.00;;;;;42.24;58.83;101627.13;4938765;28;45581;-65
2021/09/16 11:07:37;;;;;;;;;3.00;2.00;;;;;43.09;57.52;101615.31;4938649;28;46673;-65
2021/09/16 11:10:15;;;;;;;;;3.25;3.25;;;;;42.67;55.54;101619.34;4938114;28;45582;-65
2021/09/16 11:12:50;;;;;;;;;10.75;10.75;;;;;42.29;56.96;101613.59;4938169;28;45326;-65
2021/09/16 11:15:28;;;;;;;;;4.75;4.75;;;;;43.08;56.65;101621.03;4938466;28;45397;-66
2021/09/16 11:18:03;;;;;;;;;3.00;2.25;;;;;43.99;55.27;101609.88;4922432;28;45528;-64
2021/09/16 11:20:28;;;;;;;;;4.25;3.50;;;;;44.75;53.94;101614.41;4938394;28;45474;-67
2021/09/16 11:22:54;;;;;;;;;2.25;1.75;;;;;45.45;53.57;101617.72;4938611;28;45465;-64
2021/09/16 11:25:19;;;;;;;;;1.75;1.00;;;;;46.04;51.99;101616.94;4944123;28;45515;-64
2021/09/16 11:27:45;;;;;;;;;2.75;2.00;;;;;46.49;49.68;101616.47;5018803;28;46369;-65
2021/09/16 11:30:16;;;;;;;;;1.25;1.25;;;;;46.74;49.21;101609.84;5018234;28;45318;-65
2021/09/16 11:32:42;;;;;;;;;2.25;2.00;;;;;46.89;49.05;101601.97;5018913;28;45519;-65
2021/09/16 11:35:16;;;;;;;;;2.25;1.50;;;;;47.15;48.80;101612.53;5018724;28;45360;-65
2021/09/16 11:37:43;;;;;;;;;2.50;2.00;;;;;47.21;48.18;101613.47;5018695;28;45417;-65
2021/09/16 11:40:12;;;;;;;;;2.75;2.00;;;;;47.05;46.43;101605.88;5018669;28;45449;-64
2021/09/16 11:42:40;;;;;;;;;1.75;1.50;;;;;46.87;47.61;101588.38;5018517;28;45204;-65
2021/09/16 11:45:15;;;;;;;;;11.25;11.25;;;;;46.90;47.33;101601.72;5000550;28;45598;-64
2021/09/16 11:47:47;;;;;;;;;7.00;4.25;;;;;46.93;47.12;101601.22;5018375;28;46231;-65
2021/09/16 11:50:29;;;;;;;;;3.50;3.50;;;;;46.87;45.21;101604.97;5018607;28;45267;-66
2021/09/16 11:52:55;;;;;;;;;2.50;2.50;;;;;46.81;45.65;101603.16;5018537;28;45400;-65
2021/09/16 11:55:20;;;;;;;;;2.00;2.00;;;;;46.00;44.64;101610.22;5018511;28;45349;-65
2021/09/16 11:58:08;;;;;;;;;3.00;2.00;;;;;44.37;44.88;101609.88;5017588;28;45794;-65
2021/09/16 12:00:37;;;;;;;;;4.50;3.75;;;;;43.16;47.21;101606.19;5017910;28;45377;-65
2021/09/16 12:03:05;;;;;;;;;4.50;3.00;;;;;43.08;48.36;101607.28;5017268;28;45365;-65
2021/09/16 12:05:43;;;;;;;;;2.00;2.00;;;;;42.85;48.04;101606.88;5018696;28;45370;-65
2021/09/16 12:08:33;;;;;;;;;3.00;2.25;;;;;41.99;48.71;101593.91;5017885;28;46233;-65
2021/09/16 12:11:04;;;;;;;;;2.00;2.00;;;;;42.33;49.68;101603.06;4937472;28;45560;-65
2021/09/16 12:13:33;;;;;;;;;2.50;2.25;;;;;42.87;49.44;101586.34;4937936;28;45304;-65
2021/09/16 12:16:07;;;;;;;;;2.50;2.50;;;;;42.83;48.13;101587.00;4937804;28;45435;-68
2021/09/16 12:18:35;;;;;;;;;7.50;6.25;;;;;42.58;47.70;101584.94;4937474;28;45588;-64
2021/09/16 12:21:02;;;;;;;;;1.50;1.50;;;;;41.97;47.24;101587.78;4937734;28;45543;-64